Radome Status


Time Cell Pressure Wind mph Temp Com Gen Blower 1 Blower 2 Blower 3 Trigger Alarms Txt
Local net InWc Avg Peak Avg F Pow Pow State/Spd/Secs State/Spd/Secs HowOn/AcOut/secs Event Present Cnt
00:01:03OFF 2.84 2.9 0.2 0.8 18.92ONOFFDwn/0/0Opr/1/380115-AC-OFF/0///0
00:02:04OFF 2.84 2.9 0.0 0.0 18.88ONOFFDwn/0/0Opr/1/380175-AC-OFF/0///0
00:03:04OFF 2.85 2.9 0.0 0.0 18.79ONOFFDwn/0/0Opr/1/380235-AC-OFF/0///0
00:04:04OFF 2.84 2.9 0.0 0.0 18.63ONOFFDwn/0/0Opr/1/380295-AC-OFF/0///0
00:05:04OFF 2.84 2.9 0.0 0.0 18.48ONOFFDwn/0/0Opr/1/380355-AC-OFF/0///0
00:06:05OFF 2.84 2.9 0.0 0.0 18.35ONOFFDwn/0/0Opr/1/380416-AC-OFF/0///0
00:07:05OFF 2.85 2.9 0.0 0.0 18.25ONOFFDwn/0/0Opr/1/380476-AC-OFF/0///0
00:08:10OFF 2.84 2.9 0.3 1.1 18.21ONOFFDwn/0/0Opr/1/380541-AC-OFF/0///0
00:09:10OFF 2.84 2.9 0.6 1.4 18.25ONOFFDwn/0/0Opr/1/380601-AC-OFF/0///0
00:10:11OFF 2.83 2.9 1.5 2.1 18.31ONOFFDwn/0/0Opr/1/380662-AC-OFF/0///0
00:11:11OFF 2.84 2.9 2.3 3.5 18.37ONOFFDwn/0/0Opr/1/380722-AC-OFF/0///0
00:12:15OFF 2.83 2.9 1.9 2.8 18.46ONOFFDwn/0/0Opr/1/380787-AC-OFF/0///0
00:13:16OFF 2.84 2.9 2.3 2.8 18.53ONOFFDwn/0/0Opr/1/380847-AC-OFF/0///0
00:14:16OFF 2.83 2.8 3.4 4.5 18.61ONOFFDwn/0/0Opr/1/380907-AC-OFF/0///0
00:15:16OFF 2.83 2.8 3.6 4.2 18.76ONOFFDwn/0/0Opr/1/380967-AC-OFF/0///0
00:16:16OFF 2.84 2.9 3.0 4.2 18.93ONOFFDwn/0/0Opr/1/381027-AC-OFF/0///0
00:17:17OFF 2.84 2.9 1.8 2.8 19.05ONOFFDwn/0/0Opr/1/381088-AC-OFF/0///0
00:18:17OFF 2.83 2.9 1.7 2.5 19.13ONOFFDwn/0/0Opr/1/381148-AC-OFF/0///0
00:19:18OFF 2.83 2.9 1.8 2.5 19.21ONOFFDwn/0/0Opr/1/381209-AC-OFF/0///0
00:20:18OFF 2.84 2.9 1.3 2.1 19.25ONOFFDwn/0/0Opr/1/381269-AC-OFF/0///0
00:21:18OFF 2.83 2.9 1.6 3.5 19.23ONOFFDwn/0/0Opr/1/381329-AC-OFF/0///0
00:22:18OFF 2.84 2.9 2.3 3.5 19.21ONOFFDwn/0/0Opr/1/381389-AC-OFF/0///0
00:23:18OFF 2.84 2.9 3.1 4.2 19.23ONOFFDwn/0/0Opr/1/381449-AC-OFF/0///0
00:24:18OFF 2.83 2.9 2.5 3.5 19.25ONOFFDwn/0/0Opr/1/381509-AC-OFF/0///0
00:25:18OFF 2.83 2.8 3.0 4.5 19.26ONOFFDwn/0/0Opr/1/381569-AC-OFF/0///0
00:26:19OFF 2.83 2.9 2.8 4.9 19.28ONOFFDwn/0/0Opr/1/381630-AC-OFF/0///0
00:27:19OFF 2.83 2.9 2.9 4.2 19.29ONOFFDwn/0/0Opr/1/381690-AC-OFF/0///0
00:28:19OFF 2.83 2.9 1.9 3.8 19.30ONOFFDwn/0/0Opr/1/381750-AC-OFF/0///0
00:29:19OFF 2.83 2.9 1.3 2.8 19.29ONOFFDwn/0/0Opr/1/381810-AC-OFF/0///0
00:30:20OFF 2.84 2.9 1.8 2.8 19.25ONOFFDwn/0/0Opr/1/381871-AC-OFF/0///0
00:31:20OFF 2.83 2.9 1.8 2.8 19.18ONOFFDwn/0/0Opr/1/381932-AC-OFF/0///0
00:32:21OFF 2.83 2.9 2.1 2.5 19.12ONOFFDwn/0/0Opr/1/381992-AC-OFF/0///0
00:33:21OFF 2.83 2.9 2.1 3.2 19.07ONOFFDwn/0/0Opr/1/382052-AC-OFF/0///0
00:34:21OFF 2.82 2.8 3.6 4.9 19.05ONOFFDwn/0/0Opr/1/382112-AC-OFF/0///0
00:35:25OFF 2.83 2.9 3.3 4.2 19.07ONOFFDwn/0/0Opr/1/382177-AC-OFF/0///0
00:36:26OFF 2.83 2.8 4.1 5.6 19.09ONOFFDwn/0/0Opr/1/382237-AC-OFF/0///0
00:37:26OFF 2.83 2.9 2.9 4.5 19.11ONOFFDwn/0/0Opr/1/382297-AC-OFF/0///0
00:38:26OFF 2.82 2.8 4.0 5.9 19.12ONOFFDwn/0/0Opr/1/382357-AC-OFF/0///0
00:39:26OFF 2.82 2.8 3.5 5.6 19.12ONOFFDwn/0/0Opr/1/382417-AC-OFF/0///0
00:40:26OFF 2.83 2.9 2.9 4.5 19.12ONOFFDwn/0/0Opr/1/382477-AC-OFF/0///0
00:41:27OFF 2.84 2.9 1.9 3.2 19.10ONOFFDwn/0/0Opr/1/382538-AC-OFF/0///0
00:42:32OFF 2.84 2.9 0.4 1.1 19.06ONOFFDwn/0/0Opr/1/382603-AC-OFF/0///0
00:43:32OFF 2.83 2.9 0.4 1.1 18.99ONOFFDwn/0/0Opr/1/382663-AC-OFF/0///0
00:44:32OFF 2.83 2.8 1.3 1.8 18.91ONOFFDwn/0/0Opr/1/382723-AC-OFF/0///0
00:45:32OFF 2.82 2.9 1.9 2.5 18.84ONOFFDwn/0/0Opr/1/382783-AC-OFF/0///0
00:46:33OFF 2.83 2.9 1.6 2.1 18.79ONOFFDwn/0/0Opr/1/382844-AC-OFF/0///0
00:47:33OFF 2.85 2.9 0.1 0.4 18.74ONOFFDwn/0/0Opr/1/382904-AC-OFF/0///0
00:48:33OFF 2.85 2.9 0.0 0.0 18.69ONOFFDwn/0/0Opr/1/382964-AC-OFF/0///0
00:49:33OFF 2.85 2.9 0.0 0.0 18.55ONOFFDwn/0/0Opr/1/383024-AC-OFF/0///0
00:50:38OFF 2.85 2.9 0.0 0.0 18.36ONOFFDwn/0/0Opr/1/383089-AC-OFF/0///0
00:51:38OFF 2.86 2.9 0.0 0.0 18.19ONOFFDwn/0/0Opr/1/383149-AC-OFF/0///0
00:52:39OFF 2.85 2.9 0.0 0.0 18.05ONOFFDwn/0/0Opr/1/383210-AC-OFF/0///0
00:53:39OFF 2.85 2.9 0.0 0.4 17.96ONOFFDwn/0/0Opr/1/383270-AC-OFF/0///0
00:54:39OFF 2.85 2.9 0.0 0.0 17.92ONOFFDwn/0/0Opr/1/383330-AC-OFF/0///0
00:55:39OFF 2.85 2.9 0.0 0.4 17.89ONOFFDwn/0/0Opr/1/383390-AC-OFF/0///0
00:56:40OFF 2.85 2.9 0.1 0.8 17.89ONOFFDwn/0/0Opr/1/383451-AC-OFF/0///0
00:57:40OFF 2.85 2.9 0.0 0.4 17.89ONOFFDwn/0/0Opr/1/383511-AC-OFF/0///0
00:58:45OFF 2.84 2.9 0.0 0.0 17.86ONOFFDwn/0/0Opr/1/383576-AC-OFF/0///0
00:59:49OFF 2.84 2.9 0.0 0.0 17.83ONOFFDwn/0/0Opr/1/383641-AC-OFF/0///0
01:00:50OFF 2.84 2.9 0.0 0.0 17.83ONOFFDwn/0/0Opr/1/383701-AC-OFF/0///0
01:01:50OFF 2.85 2.9 0.1 0.8 17.83ONOFFDwn/0/0Opr/1/383761-AC-OFF/0///0
01:02:50OFF 2.85 2.9 0.0 0.0 17.83ONOFFDwn/0/0Opr/1/383821-AC-OFF/0///0
01:03:50OFF 2.85 2.9 0.0 0.0 17.83ONOFFDwn/0/0Opr/1/383881-AC-OFF/0///0
01:04:50OFF 2.85 2.9 0.0 0.0 17.81ONOFFDwn/0/0Opr/1/383941-AC-OFF/0///0
01:05:50OFF 2.85 2.9 0.0 0.0 17.77ONOFFDwn/0/0Opr/1/384001-AC-OFF/0///0
01:06:51OFF 2.85 2.9 0.0 0.0 17.73ONOFFDwn/0/0Opr/1/384062-AC-OFF/0///0
01:07:51OFF 2.85 2.9 0.1 0.4 17.72ONOFFDwn/0/0Opr/1/384122-AC-OFF/0///0
01:08:51OFF 2.84 2.9 0.0 0.4 17.74ONOFFDwn/0/0Opr/1/384182-AC-OFF/0///0
01:09:51OFF 2.84 2.9 0.0 0.0 17.77ONOFFDwn/0/0Opr/1/384242-AC-OFF/0///0
01:10:51OFF 2.85 2.9 0.0 0.0 17.81ONOFFDwn/0/0Opr/1/384302-AC-OFF/0///0
01:11:51OFF 2.85 2.9 0.0 0.0 17.81ONOFFDwn/0/0Opr/1/384362-AC-OFF/0///0
01:12:51OFF 2.84 2.9 0.0 0.0 17.79ONOFFDwn/0/0Opr/1/384422-AC-OFF/0///0
01:13:51OFF 2.84 2.9 0.0 0.0 17.77ONOFFDwn/0/0Opr/1/384482-AC-OFF/0///0
01:14:51OFF 2.85 2.9 0.0 0.0 17.76ONOFFDwn/0/0Opr/1/384542-AC-OFF/0///0
01:15:51OFF 2.85 2.9 0.0 0.4 17.74ONOFFDwn/0/0Opr/1/384602-AC-OFF/0///0
01:16:51OFF 2.85 2.9 0.0 0.0 17.77ONOFFDwn/0/0Opr/1/384662-AC-OFF/0///0
01:17:51OFF 2.86 2.9 0.1 0.4 17.80ONOFFDwn/0/0Opr/1/384722-AC-OFF/0///0
01:18:51OFF 2.85 2.9 0.3 1.4 17.83ONOFFDwn/0/0Opr/1/384782-AC-OFF/0///0
01:19:52OFF 2.85 2.9 0.1 0.4 17.86ONOFFDwn/0/0Opr/1/384843-AC-OFF/0///0
01:20:52OFF 2.86 2.9 0.0 0.0 17.91ONOFFDwn/0/0Opr/1/384903-AC-OFF/0///0
01:21:52OFF 2.85 2.9 0.0 0.0 17.95ONOFFDwn/0/0Opr/1/384963-AC-OFF/0///0
01:22:52OFF 2.86 2.9 0.0 0.0 17.99ONOFFDwn/0/0Opr/1/385023-AC-OFF/0///0
01:23:52OFF 2.86 2.9 0.0 0.0 18.04ONOFFDwn/0/0Opr/1/385083-AC-OFF/0///0


File ends on 20150301
Logs also available for previous period,
or for other periods.

Blower States: Reseting, Stopped, Starting, Testing, Operating, Faulted, OffLine